Time,TemperatureF,DewpointF,PressureIn,WindDirection,WindDirectionDegrees,WindSpeedMPH,WindSpeedGustMPH,Humidity,HourlyPrecipIn,Conditions,Clouds,dailyrainin,SoftwareType,DateUTC
2013-03-04 00:00:00,32.5,18.2,31.01,West,276,0.0,0.0,55,0.00,,,0.00,VWS V14.01,2013-03-04 06:00:00,
2013-03-04 00:05:00,32.5,18.2,31.01,West,276,0.0,0.0,55,0.00,,,0.00,VWS V14.01,2013-03-04 06:05:00,
2013-03-04 00:10:00,32.9,18.5,31.01,West,276,0.0,0.0,55,0.00,,,0.00,VWS V14.01,2013-03-04 06:10:00,
2013-03-04 00:15:00,33.1,18.7,31.01,West,276,0.0,0.0,55,0.00,,,0.00,VWS V14.01,2013-03-04 06:15:00,
2013-03-04 00:20:00,33.1,18.7,31.01,West,276,0.0,0.0,55,0.00,,,0.00,VWS V14.01,2013-03-04 06:20:00,
2013-03-04 00:25:00,32.7,17.9,31.01,West,276,0.0,0.0,54,0.00,,,0.00,VWS V14.01,2013-03-04 06:25:00,
2013-03-04 00:30:00,32.5,18.6,31.01,West,276,0.0,0.0,56,0.00,,,0.00,VWS V14.01,2013-03-04 06:30:00,
2013-03-04 00:35:00,32.5,18.6,31.01,West,276,0.0,0.0,56,0.00,,,0.00,VWS V14.01,2013-03-04 06:35:00,
2013-03-04 00:40:00,32.4,18.4,31.01,West,276,0.0,0.0,56,0.00,,,0.00,VWS V14.01,2013-03-04 06:40:00,
2013-03-04 00:45:00,32.4,18.4,31.01,West,276,0.0,0.0,56,0.00,,,0.00,VWS V14.01,2013-03-04 06:45:00,
2013-03-04 00:50:00,32.4,18.8,31.01,West,276,0.0,0.0,57,0.00,,,0.00,VWS V14.01,2013-03-04 06:50:00,
2013-03-04 00:54:00,32.4,18.8,31.01,West,276,0.0,0.0,57,0.00,,,0.00,VWS V14.01,2013-03-04 06:54:00,
2013-03-04 00:59:00,32.5,19.0,31.01,West,276,0.0,0.0,57,0.00,,,0.00,VWS V14.01,2013-03-04 06:59:00,
2013-03-04 01:04:00,32.9,19.4,31.01,West,276,0.0,0.0,57,0.00,,,0.00,VWS V14.01,2013-03-04 07:04:00,
2013-03-04 01:09:00,33.3,19.7,31.01,West,276,0.0,0.0,57,0.00,,,0.00,VWS V14.01,2013-03-04 07:09:00,
2013-03-04 01:14:00,33.6,20.0,31.01,West,276,0.0,0.0,57,0.00,,,0.00,VWS V14.01,2013-03-04 07:14:00,
2013-03-04 01:19:00,33.8,19.8,31.01,West,276,0.0,0.0,56,0.00,,,0.00,VWS V14.01,2013-03-04 07:19:00,
2013-03-04 01:24:00,34.0,20.0,31.01,West,276,0.0,0.0,56,0.00,,,0.00,VWS V14.01,2013-03-04 07:24:00,
2013-03-04 01:29:00,34.0,20.0,31.01,West,276,0.0,0.0,56,0.00,,,0.00,VWS V14.01,2013-03-04 07:29:00,
2013-03-04 01:34:00,34.0,19.1,31.01,West,276,0.0,0.0,54,0.00,,,0.00,VWS V14.01,2013-03-04 07:34:00,
2013-03-04 01:39:00,33.8,18.9,31.01,West,276,0.0,0.0,54,0.00,,,0.00,VWS V14.01,2013-03-04 07:39:00,
2013-03-04 01:44:00,33.8,18.9,31.01,West,276,0.0,0.0,54,0.00,,,0.00,VWS V14.01,2013-03-04 07:44:00,
2013-03-04 01:49:00,33.8,19.4,31.01,West,276,0.0,0.0,55,0.00,,,0.00,VWS V14.01,2013-03-04 07:49:00,
2013-03-04 01:54:00,33.8,19.4,31.01,West,276,0.0,0.0,55,0.00,,,0.00,VWS V14.01,2013-03-04 07:54:00,
2013-03-04 01:59:00,34.0,19.5,31.01,West,276,0.0,0.0,55,0.00,,,0.00,VWS V14.01,2013-03-04 07:59:00,
2013-03-04 02:04:00,34.2,20.1,31.01,West,276,0.0,0.0,56,0.00,,,0.00,VWS V14.01,2013-03-04 08:04:00,
2013-03-04 02:09:00,34.3,20.3,31.01,West,276,0.0,0.0,56,0.00,,,0.00,VWS V14.01,2013-03-04 08:09:00,
2013-03-04 02:14:00,34.5,20.5,31.01,West,276,0.0,0.0,56,0.00,,,0.00,VWS V14.01,2013-03-04 08:14:00,
2013-03-04 02:19:00,34.5,20.5,31.01,West,276,0.0,0.0,56,0.00,,,0.00,VWS V14.01,2013-03-04 08:19:00,
2013-03-04 02:24:00,34.3,19.9,31.01,West,276,0.0,0.0,55,0.00,,,0.00,VWS V14.01,2013-03-04 08:24:00,
2013-03-04 02:29:00,34.3,19.9,31.01,West,276,0.0,0.0,55,0.00,,,0.00,VWS V14.01,2013-03-04 08:29:00,
2013-03-04 02:34:00,34.5,20.0,31.01,West,276,0.0,0.0,55,0.00,,,0.00,VWS V14.01,2013-03-04 08:34:00,
2013-03-04 02:39:00,34.5,20.0,31.01,West,276,0.0,0.0,55,0.00,,,0.00,VWS V14.01,2013-03-04 08:39:00,
2013-03-04 02:44:00,34.7,19.8,31.01,West,276,0.0,0.0,54,0.00,,,0.00,VWS V14.01,2013-03-04 08:44:00,
2013-03-04 02:49:00,34.7,19.8,31.01,West,276,0.0,0.0,54,0.00,,,0.00,VWS V14.01,2013-03-04 08:49:00,
2013-03-04 02:54:00,34.7,19.8,31.01,West,276,0.0,0.0,54,0.00,,,0.00,VWS V14.01,2013-03-04 08:54:00,
2013-03-04 02:59:00,34.7,19.8,31.01,West,276,0.0,0.0,54,0.00,,,0.00,VWS V14.01,2013-03-04 08:59:00,
2013-03-04 03:04:00,34.7,19.3,31.01,West,276,0.0,0.0,53,0.00,,,0.00,VWS V14.01,2013-03-04 09:04:00,
2013-03-04 03:09:00,34.5,19.2,31.01,West,276,0.0,0.0,53,0.00,,,0.00,VWS V14.01,2013-03-04 09:09:00,
2013-03-04 03:14:00,34.5,19.2,31.01,West,276,0.0,0.0,53,0.00,,,0.00,VWS V14.01,2013-03-04 09:14:00,
2013-03-04 03:19:00,34.7,19.3,31.01,West,276,0.0,0.0,53,0.00,,,0.00,VWS V14.01,2013-03-04 09:19:00,
2013-03-04 03:24:00,34.7,19.3,31.01,West,276,0.0,0.0,53,0.00,,,0.00,VWS V14.01,2013-03-04 09:24:00,
2013-03-04 03:29:00,34.7,19.3,31.01,West,276,0.0,0.0,53,0.00,,,0.00,VWS V14.01,2013-03-04 09:29:00,
2013-03-04 03:34:00,34.5,19.2,31.01,West,276,0.0,0.0,53,0.00,,,0.00,VWS V14.01,2013-03-04 09:34:00,
2013-03-04 03:39:00,34.5,19.2,31.01,West,276,0.0,0.0,53,0.00,,,0.00,VWS V14.01,2013-03-04 09:39:00,
2013-03-04 03:44:00,34.5,19.2,31.01,West,276,0.0,0.0,53,0.00,,,0.00,VWS V14.01,2013-03-04 09:44:00,
2013-03-04 03:49:00,34.3,18.5,31.01,West,276,0.0,0.0,52,0.00,,,0.00,VWS V14.01,2013-03-04 09:49:00,
2013-03-04 03:54:00,34.2,18.4,31.01,West,276,0.0,0.0,52,0.00,,,0.00,VWS V14.01,2013-03-04 09:54:00,
2013-03-04 03:59:00,34.2,18.4,31.01,West,276,0.0,0.0,52,0.00,,,0.00,VWS V14.01,2013-03-04 09:59:00,
2013-03-04 04:04:00,34.0,18.2,31.01,West,276,0.0,0.0,52,0.00,,,0.00,VWS V14.01,2013-03-04 10:04:00,
2013-03-04 04:09:00,34.0,18.2,31.01,West,276,0.0,0.0,52,0.00,,,0.00,VWS V14.01,2013-03-04 10:09:00,
2013-03-04 04:14:00,33.8,18.0,31.01,West,276,0.0,0.0,52,0.00,,,0.00,VWS V14.01,2013-03-04 10:14:00,
2013-03-04 04:19:00,33.6,17.9,31.01,West,276,0.0,0.0,52,0.00,,,0.00,VWS V14.01,2013-03-04 10:19:00,
2013-03-04 04:24:00,33.4,17.7,31.01,West,276,0.0,0.0,52,0.00,,,0.00,VWS V14.01,2013-03-04 10:24:00,
2013-03-04 04:29:00,33.1,17.8,31.01,West,276,0.0,0.0,53,0.00,,,0.00,VWS V14.01,2013-03-04 10:29:00,
2013-03-04 04:34:00,33.1,17.8,31.01,West,276,0.0,0.0,53,0.00,,,0.00,VWS V14.01,2013-03-04 10:34:00,
2013-03-04 04:39:00,32.9,17.7,31.01,West,276,0.0,0.0,53,0.00,,,0.00,VWS V14.01,2013-03-04 10:39:00,
2013-03-04 04:44:00,32.9,17.7,31.01,West,276,0.0,0.0,53,0.00,,,0.00,VWS V14.01,2013-03-04 10:44:00,
2013-03-04 04:49:00,32.9,17.7,31.01,West,276,0.0,0.0,53,0.00,,,0.00,VWS V14.01,2013-03-04 10:49:00,
2013-03-04 04:54:00,32.9,17.7,31.01,West,276,0.0,0.0,53,0.00,,,0.00,VWS V14.01,2013-03-04 10:54:00,
2013-03-04 04:59:00,32.7,17.5,31.01,West,276,0.0,0.0,53,0.00,,,0.00,VWS V14.01,2013-03-04 10:59:00,
2013-03-04 05:04:00,32.9,18.1,31.01,West,276,0.0,0.0,54,0.00,,,0.00,VWS V14.01,2013-03-04 11:04:00,
2013-03-04 05:09:00,33.1,18.3,31.01,West,276,0.0,0.0,54,0.00,,,0.00,VWS V14.01,2013-03-04 11:09:00,
2013-03-04 05:14:00,33.1,18.3,31.01,West,276,0.0,0.0,54,0.00,,,0.00,VWS V14.01,2013-03-04 11:14:00,
2013-03-04 05:19:00,32.7,18.4,31.01,West,276,0.0,0.0,55,0.00,,,0.00,VWS V14.01,2013-03-04 11:19:00,
2013-03-04 05:24:00,32.5,18.6,31.01,West,276,0.0,0.0,56,0.00,,,0.00,VWS V14.01,2013-03-04 11:24:00,
2013-03-04 05:29:00,32.4,19.2,31.01,West,276,0.0,0.0,58,0.00,,,0.00,VWS V14.01,2013-03-04 11:29:00,
2013-03-04 05:34:00,32.4,19.2,31.01,West,276,0.0,0.0,58,0.00,,,0.00,VWS V14.01,2013-03-04 11:34:00,
2013-03-04 05:39:00,32.5,19.8,31.01,West,276,0.0,0.0,59,0.00,,,0.00,VWS V14.01,2013-03-04 11:39:00,
2013-03-04 05:44:00,32.7,20.0,31.01,West,276,0.0,0.0,59,0.00,,,0.00,VWS V14.01,2013-03-04 11:44:00,
2013-03-04 05:49:00,32.4,20.0,31.01,West,276,0.0,0.0,60,0.00,,,0.00,VWS V14.01,2013-03-04 11:49:00,
2013-03-04 05:54:00,32.2,21.0,31.01,West,276,0.0,0.0,63,0.00,,,0.00,VWS V14.01,2013-03-04 11:54:00,
2013-03-04 05:59:00,31.8,21.4,31.01,West,276,0.0,0.0,65,0.00,,,0.00,VWS V14.01,2013-03-04 11:59:00,
2013-03-04 06:04:00,32.0,21.9,31.01,West,276,0.0,0.0,66,0.00,,,0.00,VWS V14.01,2013-03-04 12:04:00,
2013-03-04 06:09:00,32.2,22.1,31.01,West,276,0.0,0.0,66,0.00,,,0.00,VWS V14.01,2013-03-04 12:09:00,
2013-03-04 06:14:00,32.4,21.9,31.01,West,276,0.0,0.0,65,0.00,,,0.00,VWS V14.01,2013-03-04 12:14:00,
2013-03-04 06:19:00,32.5,22.1,31.01,West,276,0.0,0.0,65,0.00,,,0.00,VWS V14.01,2013-03-04 12:19:00,
2013-03-04 06:24:00,32.9,22.4,31.01,West,276,0.0,0.0,65,0.00,,,0.00,VWS V14.01,2013-03-04 12:24:00,
2013-03-04 06:29:00,33.1,22.6,31.01,West,276,0.0,0.0,65,0.00,,,0.00,VWS V14.01,2013-03-04 12:29:00,
2013-03-04 06:34:00,33.1,21.5,31.01,West,276,0.0,0.0,62,0.00,,,0.00,VWS V14.01,2013-03-04 12:34:00,
2013-03-04 06:39:00,32.7,21.5,31.01,West,276,0.0,0.0,63,0.00,,,0.00,VWS V14.01,2013-03-04 12:39:00,
2013-03-04 06:44:00,32.9,22.1,31.01,West,276,0.0,0.0,64,0.00,,,0.00,VWS V14.01,2013-03-04 12:44:00,
2013-03-04 06:49:00,33.3,22.4,31.01,West,276,0.0,0.0,64,0.00,,,0.00,VWS V14.01,2013-03-04 12:49:00,
2013-03-04 06:54:00,33.3,22.0,31.01,West,276,0.0,0.0,63,0.00,,,0.00,VWS V14.01,2013-03-04 12:54:00,
2013-03-04 06:59:00,33.3,22.4,31.01,West,276,0.0,0.0,64,0.00,,,0.00,VWS V14.01,2013-03-04 12:59:00,
2013-03-04 07:04:00,33.6,23.1,31.01,West,276,0.0,0.0,65,0.00,,,0.00,VWS V14.01,2013-03-04 13:04:00,
2013-03-04 07:09:00,33.8,22.9,31.01,West,276,0.0,0.0,64,0.00,,,0.00,VWS V14.01,2013-03-04 13:09:00,
2013-03-04 07:14:00,34.0,22.4,31.01,West,276,0.0,0.0,62,0.00,,,0.00,VWS V14.01,2013-03-04 13:14:00,
2013-03-04 07:19:00,34.3,22.7,31.01,West,276,0.0,0.0,62,0.00,,,0.00,VWS V14.01,2013-03-04 13:19:00,
2013-03-04 07:24:00,34.5,21.7,31.01,West,276,0.0,0.0,59,0.00,,,0.00,VWS V14.01,2013-03-04 13:24:00,
2013-03-04 07:28:00,34.9,21.2,31.01,West,276,0.0,0.0,57,0.00,,,0.00,VWS V14.01,2013-03-04 13:28:00,
2013-03-04 07:33:00,35.2,19.8,31.01,West,276,0.0,0.0,53,0.00,,,0.00,VWS V14.01,2013-03-04 13:33:00,
2013-03-04 07:38:00,35.8,20.3,31.01,West,276,0.0,0.0,53,0.00,,,0.00,VWS V14.01,2013-03-04 13:38:00,
2013-03-04 07:43:00,36.1,20.2,31.01,West,276,0.0,0.0,52,0.00,,,0.00,VWS V14.01,2013-03-04 13:43:00,
2013-03-04 07:48:00,36.5,20.6,31.01,West,276,0.0,0.0,52,0.00,,,0.00,VWS V14.01,2013-03-04 13:48:00,
2013-03-04 07:53:00,36.9,20.0,31.01,West,276,0.0,0.0,50,0.00,,,0.00,VWS V14.01,2013-03-04 13:53:00,
2013-03-04 07:58:00,37.2,20.3,31.01,West,276,0.0,0.0,50,0.00,,,0.00,VWS V14.01,2013-03-04 13:58:00,
2013-03-04 08:03:00,37.8,20.3,31.01,South,180,5.8,5.8,49,0.00,,,0.00,VWS V14.01,2013-03-04 14:03:00,
2013-03-04 08:08:00,38.5,19.0,31.01,South,187,2.7,3.1,45,0.00,,,0.00,VWS V14.01,2013-03-04 14:08:00,
2013-03-04 08:13:00,38.8,18.3,31.01,South,182,0.0,0.0,43,0.00,,,0.00,VWS V14.01,2013-03-04 14:13:00,
2013-03-04 08:18:00,39.4,17.7,31.01,South,184,2.7,3.1,41,0.00,,,0.00,VWS V14.01,2013-03-04 14:18:00,
2013-03-04 08:23:00,39.7,16.8,31.01,South,190,0.0,0.0,39,0.00,,,0.00,VWS V14.01,2013-03-04 14:23:00,
2013-03-04 08:28:00,40.3,17.3,31.01,South,189,0.0,0.0,39,0.00,,,0.00,VWS V14.01,2013-03-04 14:28:00,
2013-03-04 08:33:00,40.6,17.6,31.01,South,187,0.0,0.0,39,0.00,,,0.00,VWS V14.01,2013-03-04 14:33:00,
2013-03-04 08:38:00,40.8,16.6,31.01,South,187,0.0,0.0,37,0.00,,,0.00,VWS V14.01,2013-03-04 14:38:00,
2013-03-04 08:43:00,41.2,16.3,31.01,South,183,0.0,0.0,36,0.00,,,0.00,VWS V14.01,2013-03-04 14:43:00,
2013-03-04 08:48:00,41.5,16.6,31.01,SSW,200,4.0,4.0,36,0.00,,,0.12,VWS V14.01,2013-03-04 14:48:00,
2013-03-04 08:53:00,41.7,16.1,31.01,SSE,168,0.0,0.0,35,0.00,,,0.00,VWS V14.01,2013-03-04 14:53:00,
2013-03-04 08:58:00,42.1,15.8,31.01,SSE,165,3.1,3.1,34,0.00,,,0.00,VWS V14.01,2013-03-04 14:58:00,
2013-03-04 09:03:00,42.1,15.1,31.01,South,190,3.6,3.6,33,0.00,,,0.00,VWS V14.01,2013-03-04 15:03:00,
2013-03-04 09:08:00,42.3,14.5,31.01,South,188,3.6,4.9,32,0.00,,,0.00,VWS V14.01,2013-03-04 15:08:00,
2013-03-04 09:13:00,42.4,14.7,31.01,SSE,160,3.6,3.6,32,0.00,,,0.00,VWS V14.01,2013-03-04 15:13:00,
2013-03-04 09:18:00,42.6,14.8,31.01,SW,216,0.0,0.0,32,0.00,,,0.00,VWS V14.01,2013-03-04 15:18:00,
2013-03-04 09:23:00,43.0,14.4,31.01,SSE,164,0.0,4.0,31,0.00,,,0.00,VWS V14.01,2013-03-04 15:23:00,
2013-03-04 09:28:00,43.3,14.8,31.01,SW,216,0.0,5.4,31,0.00,,,0.00,VWS V14.01,2013-03-04 15:28:00,
2013-03-04 09:33:00,43.5,14.9,31.01,SSW,196,4.9,5.8,31,0.00,,,0.00,VWS V14.01,2013-03-04 15:33:00,
2013-03-04 09:38:00,43.7,15.1,31.01,South,188,2.7,7.2,31,0.00,,,0.00,VWS V14.01,2013-03-04 15:38:00,
2013-03-04 09:43:00,44.1,15.4,31.01,South,191,2.7,5.4,31,0.00,,,0.00,VWS V14.01,2013-03-04 15:43:00,
2013-03-04 09:48:00,44.4,15.7,31.01,SSW,200,3.6,7.2,31,0.00,,,0.00,VWS V14.01,2013-03-04 15:48:00,
2013-03-04 09:53:00,45.0,15.4,31.01,South,182,0.0,0.0,30,0.00,,,0.00,VWS V14.01,2013-03-04 15:53:00,
2013-03-04 09:58:00,45.3,15.7,31.01,SSE,148,4.9,4.9,30,0.00,,,0.00,VWS V14.01,2013-03-04 15:58:00,
2013-03-04 10:03:00,45.7,16.0,31.01,South,171,0.0,5.8,30,0.00,,,0.00,VWS V14.01,2013-03-04 16:03:00,
2013-03-04 10:08:00,46.0,16.4,31.01,SSW,210,2.2,4.0,30,0.00,,,0.00,VWS V14.01,2013-03-04 16:08:00,
2013-03-04 10:18:00,46.6,16.8,31.01,SW,236,2.7,8.1,30,0.00,,,0.00,VWS V14.01,2013-03-04 16:18:00,
2013-03-04 10:28:00,47.1,17.3,31.01,SSE,152,0.0,5.4,30,0.00,,,0.00,VWS V14.01,2013-03-04 16:28:00,
2013-03-04 10:33:00,47.7,17.8,31.01,SSE,158,3.6,4.9,30,0.00,,,0.00,VWS V14.01,2013-03-04 16:33:00,
2013-03-04 10:43:00,48.4,18.4,31.01,SSE,154,4.9,6.3,30,0.00,,,0.00,VWS V14.01,2013-03-04 16:43:00,
2013-03-04 10:53:00,49.1,18.2,31.01,South,180,2.2,6.3,29,0.00,,,0.00,VWS V14.01,2013-03-04 16:53:00,
2013-03-04 10:58:00,49.6,18.7,31.01,ESE,116,2.7,6.7,29,0.00,,,0.00,VWS V14.01,2013-03-04 16:58:00,
2013-03-04 11:08:00,50.2,18.4,31.01,SSE,153,0.0,5.4,28,0.00,,,0.00,VWS V14.01,2013-03-04 17:08:00,
2013-03-04 11:18:00,50.5,18.7,31.01,South,179,4.9,7.6,28,0.00,,,0.00,VWS V14.01,2013-03-04 17:18:00,
2013-03-04 11:28:00,50.5,18.7,31.01,SSW,208,11.0,11.0,28,0.00,,,0.00,VWS V14.01,2013-03-04 17:28:00,
2013-03-04 11:33:00,50.2,17.5,31.01,WSW,243,5.8,11.0,27,0.00,,,0.00,VWS V14.01,2013-03-04 17:33:00,
2013-03-04 11:43:00,50.0,17.4,31.01,WSW,257,5.4,8.7,27,0.00,,,0.00,VWS V14.01,2013-03-04 17:43:00,
2013-03-04 11:48:00,50.2,18.4,31.01,South,183,0.0,8.1,28,0.00,,,0.00,VWS V14.01,2013-03-04 17:48:00,
2013-03-04 11:53:00,50.4,18.5,31.01,South,170,4.0,7.6,28,0.00,,,0.00,VWS V14.01,2013-03-04 17:53:00,
2013-03-04 12:03:00,51.1,18.3,31.01,SW,214,3.1,7.6,27,0.00,,,0.00,VWS V14.01,2013-03-04 18:03:00,
2013-03-04 12:13:00,51.3,18.4,31.01,WSW,238,2.2,6.3,27,0.00,,,0.00,VWS V14.01,2013-03-04 18:13:00,
2013-03-04 12:18:00,51.3,19.3,31.01,South,186,3.1,8.7,28,0.00,,,0.00,VWS V14.01,2013-03-04 18:18:00,